sensor_id;sensor_type;location;lat;lon;timestamp;temperature;humidity
54832;DHT22;40730;53.068;6.572;2024-02-14T00:02:01;6.60;99.90
54832;DHT22;40730;53.068;6.572;2024-02-14T00:04:26;6.70;99.90
54832;DHT22;40730;53.068;6.572;2024-02-14T00:06:52;6.70;99.90
54832;DHT22;40730;53.068;6.572;2024-02-14T00:09:18;6.70;99.90
54832;DHT22;40730;53.068;6.572;2024-02-14T00:11:44;6.70;99.90
54832;DHT22;40730;53.068;6.572;2024-02-14T00:14:09;6.70;99.90
54832;DHT22;40730;53.068;6.572;2024-02-14T00:16:35;6.70;99.90
54832;DHT22;40730;53.068;6.572;2024-02-14T00:19:01;6.70;99.90
54832;DHT22;40730;53.068;6.572;2024-02-14T00:21:28;6.70;99.90
54832;DHT22;40730;53.068;6.572;2024-02-14T00:23:53;6.70;99.90
54832;DHT22;40730;53.068;6.572;2024-02-14T00:26:19;6.70;99.90
54832;DHT22;40730;53.068;6.572;2024-02-14T00:28:44;6.70;99.90
54832;DHT22;40730;53.068;6.572;2024-02-14T00:31:10;6.70;99.90
54832;DHT22;40730;53.068;6.572;2024-02-14T00:33:35;6.70;99.90
54832;DHT22;40730;53.068;6.572;2024-02-14T00:36:01;6.70;99.90
54832;DHT22;40730;53.068;6.572;2024-02-14T00:38:27;6.80;99.90
54832;DHT22;40730;53.068;6.572;2024-02-14T00:40:52;6.80;99.90
54832;DHT22;40730;53.068;6.572;2024-02-14T00:43:18;6.70;99.90
54832;DHT22;40730;53.068;6.572;2024-02-14T00:45:43;6.80;99.90
54832;DHT22;40730;53.068;6.572;2024-02-14T00:48:09;6.80;99.90
54832;DHT22;40730;53.068;6.572;2024-02-14T00:50:34;6.80;99.90
54832;DHT22;40730;53.068;6.572;2024-02-14T00:53:00;6.80;99.90
54832;DHT22;40730;53.068;6.572;2024-02-14T00:55:25;6.80;99.90
54832;DHT22;40730;53.068;6.572;2024-02-14T00:57:51;6.80;99.90
54832;DHT22;40730;53.068;6.572;2024-02-14T01:00:17;6.80;99.90
54832;DHT22;40730;53.068;6.572;2024-02-14T01:02:43;6.70;99.90
54832;DHT22;40730;53.068;6.572;2024-02-14T01:05:09;6.90;99.90
54832;DHT22;40730;53.068;6.572;2024-02-14T01:07:35;6.90;99.90
54832;DHT22;40730;53.068;6.572;2024-02-14T01:10:01;6.90;99.90
54832;DHT22;40730;53.068;6.572;2024-02-14T01:12:27;6.90;99.90
54832;DHT22;40730;53.068;6.572;2024-02-14T01:14:55;7.00;99.90
54832;DHT22;40730;53.068;6.572;2024-02-14T01:17:20;7.00;99.90
54832;DHT22;40730;53.068;6.572;2024-02-14T01:19:46;7.00;99.90
54832;DHT22;40730;53.068;6.572;2024-02-14T01:22:12;7.00;99.90
54832;DHT22;40730;53.068;6.572;2024-02-14T01:24:37;7.00;99.90
54832;DHT22;40730;53.068;6.572;2024-02-14T01:27:03;7.10;99.90
54832;DHT22;40730;53.068;6.572;2024-02-14T01:29:29;7.00;99.90
54832;DHT22;40730;53.068;6.572;2024-02-14T01:31:54;7.10;99.90
54832;DHT22;40730;53.068;6.572;2024-02-14T01:34:21;7.10;99.90
54832;DHT22;40730;53.068;6.572;2024-02-14T01:36:48;7.10;99.90
54832;DHT22;40730;53.068;6.572;2024-02-14T01:39:13;7.10;99.90
54832;DHT22;40730;53.068;6.572;2024-02-14T01:41:43;7.10;99.90
54832;DHT22;40730;53.068;6.572;2024-02-14T01:44:11;7.60;99.90
54832;DHT22;40730;53.068;6.572;2024-02-14T01:46:36;7.20;99.90
54832;DHT22;40730;53.068;6.572;2024-02-14T01:49:02;7.20;99.90
54832;DHT22;40730;53.068;6.572;2024-02-14T01:51:29;7.20;99.90
54832;DHT22;40730;53.068;6.572;2024-02-14T01:53:56;7.30;99.90
54832;DHT22;40730;53.068;6.572;2024-02-14T01:56:21;7.20;99.90
54832;DHT22;40730;53.068;6.572;2024-02-14T01:58:47;7.20;99.90
54832;DHT22;40730;53.068;6.572;2024-02-14T02:01:13;7.20;99.90
54832;DHT22;40730;53.068;6.572;2024-02-14T02:03:38;7.30;99.90
54832;DHT22;40730;53.068;6.572;2024-02-14T02:06:07;7.30;99.90
54832;DHT22;40730;53.068;6.572;2024-02-14T02:08:33;7.30;99.90
54832;DHT22;40730;53.068;6.572;2024-02-14T02:10:59;7.40;99.90
54832;DHT22;40730;53.068;6.572;2024-02-14T02:13:24;7.40;99.90
54832;DHT22;40730;53.068;6.572;2024-02-14T02:15:52;7.40;99.90
54832;DHT22;40730;53.068;6.572;2024-02-14T02:18:18;7.40;99.90
54832;DHT22;40730;53.068;6.572;2024-02-14T02:20:45;7.50;99.90
54832;DHT22;40730;53.068;6.572;2024-02-14T02:23:11;7.50;99.90
54832;DHT22;40730;53.068;6.572;2024-02-14T02:25:41;7.50;99.90
54832;DHT22;40730;53.068;6.572;2024-02-14T02:28:06;7.60;99.90
54832;DHT22;40730;53.068;6.572;2024-02-14T02:30:34;7.50;99.90
54832;DHT22;40730;53.068;6.572;2024-02-14T02:33:01;7.60;99.90
54832;DHT22;40730;53.068;6.572;2024-02-14T02:35:28;7.50;99.90
54832;DHT22;40730;53.068;6.572;2024-02-14T02:37:53;7.60;99.90
54832;DHT22;40730;53.068;6.572;2024-02-14T02:40:19;7.70;99.90
54832;DHT22;40730;53.068;6.572;2024-02-14T02:42:47;7.70;99.90
54832;DHT22;40730;53.068;6.572;2024-02-14T02:45:13;7.70;99.90
54832;DHT22;40730;53.068;6.572;2024-02-14T02:47:39;7.70;99.90
54832;DHT22;40730;53.068;6.572;2024-02-14T02:50:05;7.80;99.90
54832;DHT22;40730;53.068;6.572;2024-02-14T02:52:31;7.70;99.90
54832;DHT22;40730;53.068;6.572;2024-02-14T02:54:57;7.80;99.90
54832;DHT22;40730;53.068;6.572;2024-02-14T02:57:22;7.80;99.90
54832;DHT22;40730;53.068;6.572;2024-02-14T02:59:48;7.80;99.90
54832;DHT22;40730;53.068;6.572;2024-02-14T03:02:15;7.90;99.90
54832;DHT22;40730;53.068;6.572;2024-02-14T03:04:40;7.90;99.90
54832;DHT22;40730;53.068;6.572;2024-02-14T03:07:10;7.90;99.90
54832;DHT22;40730;53.068;6.572;2024-02-14T03:09:36;7.90;99.90
54832;DHT22;40730;53.068;6.572;2024-02-14T03:12:03;7.90;99.90
54832;DHT22;40730;53.068;6.572;2024-02-14T03:14:32;7.90;99.90
54832;DHT22;40730;53.068;6.572;2024-02-14T03:17:02;8.00;99.90
54832;DHT22;40730;53.068;6.572;2024-02-14T03:19:29;8.10;99.90
54832;DHT22;40730;53.068;6.572;2024-02-14T03:21:56;8.10;99.90
54832;DHT22;40730;53.068;6.572;2024-02-14T03:24:22;8.10;99.90
54832;DHT22;40730;53.068;6.572;2024-02-14T03:26:51;8.00;99.90
54832;DHT22;40730;53.068;6.572;2024-02-14T03:29:17;8.10;99.90
54832;DHT22;40730;53.068;6.572;2024-02-14T03:31:44;8.10;99.90
54832;DHT22;40730;53.068;6.572;2024-02-14T03:34:09;8.20;99.90
54832;DHT22;40730;53.068;6.572;2024-02-14T03:36:38;8.20;99.90
54832;DHT22;40730;53.068;6.572;2024-02-14T03:39:05;8.20;99.90
54832;DHT22;40730;53.068;6.572;2024-02-14T03:41:32;8.20;99.90
54832;DHT22;40730;53.068;6.572;2024-02-14T03:43:58;8.30;99.90
54832;DHT22;40730;53.068;6.572;2024-02-14T03:46:27;8.30;99.90
54832;DHT22;40730;53.068;6.572;2024-02-14T03:48:53;8.30;99.90
54832;DHT22;40730;53.068;6.572;2024-02-14T03:51:19;8.30;99.90
54832;DHT22;40730;53.068;6.572;2024-02-14T03:53:45;8.30;99.90
54832;DHT22;40730;53.068;6.572;2024-02-14T03:56:10;8.40;99.90
54832;DHT22;40730;53.068;6.572;2024-02-14T03:58:38;8.40;99.90
54832;DHT22;40730;53.068;6.572;2024-02-14T04:01:04;8.70;99.90
54832;DHT22;40730;53.068;6.572;2024-02-14T04:03:30;8.50;99.90
54832;DHT22;40730;53.068;6.572;2024-02-14T04:05:55;8.40;99.90
54832;DHT22;40730;53.068;6.572;2024-02-14T04:08:21;8.50;99.90
54832;DHT22;40730;53.068;6.572;2024-02-14T04:10:47;8.50;99.90
54832;DHT22;40730;53.068;6.572;2024-02-14T04:13:15;8.50;99.90
54832;DHT22;40730;53.068;6.572;2024-02-14T04:15:41;8.60;99.90
54832;DHT22;40730;53.068;6.572;2024-02-14T04:18:08;8.50;99.90
54832;DHT22;40730;53.068;6.572;2024-02-14T04:20:34;8.60;99.90
54832;DHT22;40730;53.068;6.572;2024-02-14T04:23:00;8.70;99.90
54832;DHT22;40730;53.068;6.572;2024-02-14T04:25:26;8.60;99.90
54832;DHT22;40730;53.068;6.572;2024-02-14T04:27:51;8.70;99.90
54832;DHT22;40730;53.068;6.572;2024-02-14T04:30:17;8.70;99.90
54832;DHT22;40730;53.068;6.572;2024-02-14T04:32:42;8.80;99.90
54832;DHT22;40730;53.068;6.572;2024-02-14T04:35:09;8.70;99.90
54832;DHT22;40730;53.068;6.572;2024-02-14T04:37:35;8.80;99.90
54832;DHT22;40730;53.068;6.572;2024-02-14T04:40:02;8.80;99.90
54832;DHT22;40730;53.068;6.572;2024-02-14T04:42:29;8.90;99.90
54832;DHT22;40730;53.068;6.572;2024-02-14T04:44:55;8.90;99.90
54832;DHT22;40730;53.068;6.572;2024-02-14T04:47:20;8.90;99.90
54832;DHT22;40730;53.068;6.572;2024-02-14T04:49:46;8.90;99.90
54832;DHT22;40730;53.068;6.572;2024-02-14T04:52:12;8.90;99.90
54832;DHT22;40730;53.068;6.572;2024-02-14T04:54:38;8.90;99.90
54832;DHT22;40730;53.068;6.572;2024-02-14T04:57:03;8.90;99.90
54832;DHT22;40730;53.068;6.572;2024-02-14T04:59:30;9.00;99.90
54832;DHT22;40730;53.068;6.572;2024-02-14T05:01:56;9.00;99.90
54832;DHT22;40730;53.068;6.572;2024-02-14T05:04:22;9.10;99.90
54832;DHT22;40730;53.068;6.572;2024-02-14T05:06:48;9.10;99.90
54832;DHT22;40730;53.068;6.572;2024-02-14T05:09:15;9.20;99.90
54832;DHT22;40730;53.068;6.572;2024-02-14T05:11:41;9.10;99.90
54832;DHT22;40730;53.068;6.572;2024-02-14T05:14:06;9.30;99.90
54832;DHT22;40730;53.068;6.572;2024-02-14T05:16:32;9.40;99.90
54832;DHT22;40730;53.068;6.572;2024-02-14T05:18:58;9.20;99.90
54832;DHT22;40730;53.068;6.572;2024-02-14T05:21:23;9.30;99.90
54832;DHT22;40730;53.068;6.572;2024-02-14T05:23:49;9.30;99.90
54832;DHT22;40730;53.068;6.572;2024-02-14T05:26:16;9.30;99.90
54832;DHT22;40730;53.068;6.572;2024-02-14T05:28:41;9.30;99.90
54832;DHT22;40730;53.068;6.572;2024-02-14T05:31:07;9.30;99.90
54832;DHT22;40730;53.068;6.572;2024-02-14T05:33:33;9.30;99.90
54832;DHT22;40730;53.068;6.572;2024-02-14T05:35:58;9.40;99.90
54832;DHT22;40730;53.068;6.572;2024-02-14T05:38:24;9.40;99.90
54832;DHT22;40730;53.068;6.572;2024-02-14T05:40:50;9.50;99.90
54832;DHT22;40730;53.068;6.572;2024-02-14T05:43:16;9.40;99.90
54832;DHT22;40730;53.068;6.572;2024-02-14T05:45:43;9.40;99.90
54832;DHT22;40730;53.068;6.572;2024-02-14T05:48:09;9.40;99.90
54832;DHT22;40730;53.068;6.572;2024-02-14T05:50:35;9.50;99.90
54832;DHT22;40730;53.068;6.572;2024-02-14T05:53:02;9.40;99.90
54832;DHT22;40730;53.068;6.572;2024-02-14T05:55:28;9.50;99.90
54832;DHT22;40730;53.068;6.572;2024-02-14T05:57:54;9.50;99.90
54832;DHT22;40730;53.068;6.572;2024-02-14T06:00:20;9.50;99.90
54832;DHT22;40730;53.068;6.572;2024-02-14T06:02:46;9.50;99.90
54832;DHT22;40730;53.068;6.572;2024-02-14T06:05:13;9.60;99.90
54832;DHT22;40730;53.068;6.572;2024-02-14T06:07:39;9.50;99.90
54832;DHT22;40730;53.068;6.572;2024-02-14T06:10:06;9.50;99.90
54832;DHT22;40730;53.068;6.572;2024-02-14T06:12:32;9.60;99.90
54832;DHT22;40730;53.068;6.572;2024-02-14T06:14:58;9.70;99.90
54832;DHT22;40730;53.068;6.572;2024-02-14T06:17:24;9.70;99.90
54832;DHT22;40730;53.068;6.572;2024-02-14T06:19:52;9.70;99.90
54832;DHT22;40730;53.068;6.572;2024-02-14T06:22:17;9.70;99.90
54832;DHT22;40730;53.068;6.572;2024-02-14T06:24:43;9.60;99.90
54832;DHT22;40730;53.068;6.572;2024-02-14T06:27:09;9.80;99.90
54832;DHT22;40730;53.068;6.572;2024-02-14T06:29:35;9.80;99.90
54832;DHT22;40730;53.068;6.572;2024-02-14T06:32:00;9.80;99.90
54832;DHT22;40730;53.068;6.572;2024-02-14T06:34:26;9.70;99.90
54832;DHT22;40730;53.068;6.572;2024-02-14T06:36:53;9.80;99.90
54832;DHT22;40730;53.068;6.572;2024-02-14T06:39:19;9.80;99.90
54832;DHT22;40730;53.068;6.572;2024-02-14T06:41:46;9.80;99.90
54832;DHT22;40730;53.068;6.572;2024-02-14T06:44:13;9.90;99.90
54832;DHT22;40730;53.068;6.572;2024-02-14T06:46:38;9.80;99.90
54832;DHT22;40730;53.068;6.572;2024-02-14T06:49:04;9.80;99.90
54832;DHT22;40730;53.068;6.572;2024-02-14T06:51:30;9.80;99.90
54832;DHT22;40730;53.068;6.572;2024-02-14T06:53:56;9.80;99.90
54832;DHT22;40730;53.068;6.572;2024-02-14T06:56:22;9.80;99.90
54832;DHT22;40730;53.068;6.572;2024-02-14T06:58:48;9.80;99.90
54832;DHT22;40730;53.068;6.572;2024-02-14T07:01:19;9.80;99.90
54832;DHT22;40730;53.068;6.572;2024-02-14T07:03:47;9.90;99.90
54832;DHT22;40730;53.068;6.572;2024-02-14T07:06:13;9.90;99.90
54832;DHT22;40730;53.068;6.572;2024-02-14T07:08:42;9.90;99.90
54832;DHT22;40730;53.068;6.572;2024-02-14T07:11:07;9.80;99.90
54832;DHT22;40730;53.068;6.572;2024-02-14T07:13:33;9.90;99.90
54832;DHT22;40730;53.068;6.572;2024-02-14T07:15:58;9.80;99.90
54832;DHT22;40730;53.068;6.572;2024-02-14T07:18:24;9.90;99.90
54832;DHT22;40730;53.068;6.572;2024-02-14T07:20:50;9.80;99.90
54832;DHT22;40730;53.068;6.572;2024-02-14T07:23:16;9.90;99.90
54832;DHT22;40730;53.068;6.572;2024-02-14T07:25:42;10.00;99.90
54832;DHT22;40730;53.068;6.572;2024-02-14T07:28:08;9.90;99.90
54832;DHT22;40730;53.068;6.572;2024-02-14T07:30:34;10.00;99.90
54832;DHT22;40730;53.068;6.572;2024-02-14T07:33:00;9.90;99.90
54832;DHT22;40730;53.068;6.572;2024-02-14T07:35:26;10.00;99.90
54832;DHT22;40730;53.068;6.572;2024-02-14T07:37:52;10.10;99.90
54832;DHT22;40730;53.068;6.572;2024-02-14T07:40:18;10.10;99.90
54832;DHT22;40730;53.068;6.572;2024-02-14T07:42:44;10.10;99.90
54832;DHT22;40730;53.068;6.572;2024-02-14T07:45:10;10.10;99.90
54832;DHT22;40730;53.068;6.572;2024-02-14T07:47:35;10.00;99.90
54832;DHT22;40730;53.068;6.572;2024-02-14T07:50:01;10.10;99.90
54832;DHT22;40730;53.068;6.572;2024-02-14T07:52:28;10.20;99.90
54832;DHT22;40730;53.068;6.572;2024-02-14T07:54:53;10.20;99.90
54832;DHT22;40730;53.068;6.572;2024-02-14T07:57:22;10.10;99.90
54832;DHT22;40730;53.068;6.572;2024-02-14T07:59:47;10.20;99.90
54832;DHT22;40730;53.068;6.572;2024-02-14T08:02:13;10.20;99.90
54832;DHT22;40730;53.068;6.572;2024-02-14T08:04:39;10.20;99.90
54832;DHT22;40730;53.068;6.572;2024-02-14T08:07:05;10.20;99.90
54832;DHT22;40730;53.068;6.572;2024-02-14T08:09:30;10.20;99.90
54832;DHT22;40730;53.068;6.572;2024-02-14T08:11:56;10.20;99.90
54832;DHT22;40730;53.068;6.572;2024-02-14T08:14:21;10.20;99.90
54832;DHT22;40730;53.068;6.572;2024-02-14T08:16:47;10.30;99.90
54832;DHT22;40730;53.068;6.572;2024-02-14T08:19:13;10.40;99.90
54832;DHT22;40730;53.068;6.572;2024-02-14T08:21:39;10.20;99.90
54832;DHT22;40730;53.068;6.572;2024-02-14T08:24:05;10.30;99.90
54832;DHT22;40730;53.068;6.572;2024-02-14T08:26:31;10.40;99.90
54832;DHT22;40730;53.068;6.572;2024-02-14T08:28:57;10.30;99.90
54832;DHT22;40730;53.068;6.572;2024-02-14T08:31:23;10.30;99.90
54832;DHT22;40730;53.068;6.572;2024-02-14T08:33:49;10.30;99.90
54832;DHT22;40730;53.068;6.572;2024-02-14T08:36:15;10.40;99.90
54832;DHT22;40730;53.068;6.572;2024-02-14T08:38:42;10.40;99.90
54832;DHT22;40730;53.068;6.572;2024-02-14T08:41:08;10.40;99.90
54832;DHT22;40730;53.068;6.572;2024-02-14T08:43:33;10.50;99.90
54832;DHT22;40730;53.068;6.572;2024-02-14T08:45:59;10.40;99.90
54832;DHT22;40730;53.068;6.572;2024-02-14T08:48:25;10.40;99.90
54832;DHT22;40730;53.068;6.572;2024-02-14T08:50:52;10.40;99.90
54832;DHT22;40730;53.068;6.572;2024-02-14T08:53:18;10.40;99.90
54832;DHT22;40730;53.068;6.572;2024-02-14T08:55:44;10.40;99.90
54832;DHT22;40730;53.068;6.572;2024-02-14T08:58:10;10.50;99.90
54832;DHT22;40730;53.068;6.572;2024-02-14T09:00:36;10.50;99.90
54832;DHT22;40730;53.068;6.572;2024-02-14T09:03:03;10.40;99.90
54832;DHT22;40730;53.068;6.572;2024-02-14T09:05:28;10.60;99.90
54832;DHT22;40730;53.068;6.572;2024-02-14T09:07:54;10.60;99.90
54832;DHT22;40730;53.068;6.572;2024-02-14T09:10:20;10.60;99.90
54832;DHT22;40730;53.068;6.572;2024-02-14T09:12:47;10.60;99.90
54832;DHT22;40730;53.068;6.572;2024-02-14T09:15:13;10.60;99.90
54832;DHT22;40730;53.068;6.572;2024-02-14T09:17:39;10.60;99.90
54832;DHT22;40730;53.068;6.572;2024-02-14T09:20:07;10.60;99.90
54832;DHT22;40730;53.068;6.572;2024-02-14T09:22:38;10.60;99.90
54832;DHT22;40730;53.068;6.572;2024-02-14T09:25:04;10.60;99.90
54832;DHT22;40730;53.068;6.572;2024-02-14T09:27:31;10.70;99.90
54832;DHT22;40730;53.068;6.572;2024-02-14T09:29:56;10.70;99.90
54832;DHT22;40730;53.068;6.572;2024-02-14T09:32:22;10.60;99.90
54832;DHT22;40730;53.068;6.572;2024-02-14T09:34:47;10.70;99.90
54832;DHT22;40730;53.068;6.572;2024-02-14T09:37:13;10.60;99.90
54832;DHT22;40730;53.068;6.572;2024-02-14T09:39:39;10.60;99.90
54832;DHT22;40730;53.068;6.572;2024-02-14T09:42:16;10.70;99.90
54832;DHT22;40730;53.068;6.572;2024-02-14T09:44:43;10.80;99.90
54832;DHT22;40730;53.068;6.572;2024-02-14T09:47:09;10.80;99.90
54832;DHT22;40730;53.068;6.572;2024-02-14T09:49:35;10.80;99.90
54832;DHT22;40730;53.068;6.572;2024-02-14T09:52:05;10.90;99.90
54832;DHT22;40730;53.068;6.572;2024-02-14T09:54:32;11.00;99.90
54832;DHT22;40730;53.068;6.572;2024-02-14T09:57:00;10.80;99.90
54832;DHT22;40730;53.068;6.572;2024-02-14T09:59:27;10.90;99.90
54832;DHT22;40730;53.068;6.572;2024-02-14T10:01:54;10.90;99.90
54832;DHT22;40730;53.068;6.572;2024-02-14T10:04:20;11.10;99.90
54832;DHT22;40730;53.068;6.572;2024-02-14T10:06:47;11.10;99.90
54832;DHT22;40730;53.068;6.572;2024-02-14T10:09:21;11.00;99.90
54832;DHT22;40730;53.068;6.572;2024-02-14T10:11:47;11.10;99.90
54832;DHT22;40730;53.068;6.572;2024-02-14T10:14:13;11.20;99.90
54832;DHT22;40730;53.068;6.572;2024-02-14T10:16:39;11.10;99.90
54832;DHT22;40730;53.068;6.572;2024-02-14T10:19:04;11.20;99.90
54832;DHT22;40730;53.068;6.572;2024-02-14T10:21:33;11.10;99.90
54832;DHT22;40730;53.068;6.572;2024-02-14T10:24:02;11.20;99.90
54832;DHT22;40730;53.068;6.572;2024-02-14T10:26:30;11.10;99.90
54832;DHT22;40730;53.068;6.572;2024-02-14T10:28:56;11.20;99.90
54832;DHT22;40730;53.068;6.572;2024-02-14T10:31:26;11.20;99.90
54832;DHT22;40730;53.068;6.572;2024-02-14T10:33:55;11.10;99.90
54832;DHT22;40730;53.068;6.572;2024-02-14T10:36:24;11.20;99.90
54832;DHT22;40730;53.068;6.572;2024-02-14T10:38:50;11.20;99.90
54832;DHT22;40730;53.068;6.572;2024-02-14T10:41:17;11.20;99.90
54832;DHT22;40730;53.068;6.572;2024-02-14T10:43:43;11.20;99.90
54832;DHT22;40730;53.068;6.572;2024-02-14T10:46:18;11.20;99.90
54832;DHT22;40730;53.068;6.572;2024-02-14T10:48:45;11.20;99.90
54832;DHT22;40730;53.068;6.572;2024-02-14T10:51:12;11.30;99.90
54832;DHT22;40730;53.068;6.572;2024-02-14T10:53:39;11.30;99.90
54832;DHT22;40730;53.068;6.572;2024-02-14T10:56:14;11.30;99.90
54832;DHT22;40730;53.068;6.572;2024-02-14T10:58:43;11.30;99.90
54832;DHT22;40730;53.068;6.572;2024-02-14T11:01:10;11.30;99.90
54832;DHT22;40730;53.068;6.572;2024-02-14T11:03:36;11.30;99.90
54832;DHT22;40730;53.068;6.572;2024-02-14T11:06:03;11.30;99.90
54832;DHT22;40730;53.068;6.572;2024-02-14T11:08:29;11.30;99.90
54832;DHT22;40730;53.068;6.572;2024-02-14T11:10:59;11.30;99.90
54832;DHT22;40730;53.068;6.572;2024-02-14T11:13:31;11.30;99.90
54832;DHT22;40730;53.068;6.572;2024-02-14T11:16:01;11.30;99.90
54832;DHT22;40730;53.068;6.572;2024-02-14T11:18:28;11.40;99.90
54832;DHT22;40730;53.068;6.572;2024-02-14T11:20:57;11.40;99.90
54832;DHT22;40730;53.068;6.572;2024-02-14T11:23:25;11.30;99.90
54832;DHT22;40730;53.068;6.572;2024-02-14T11:26:03;11.40;99.90
54832;DHT22;40730;53.068;6.572;2024-02-14T11:28:30;11.40;99.90
54832;DHT22;40730;53.068;6.572;2024-02-14T11:31:02;11.40;99.90
54832;DHT22;40730;53.068;6.572;2024-02-14T11:33:29;11.40;99.90
54832;DHT22;40730;53.068;6.572;2024-02-14T11:35:55;11.40;99.90
54832;DHT22;40730;53.068;6.572;2024-02-14T11:38:23;11.50;99.90
54832;DHT22;40730;53.068;6.572;2024-02-14T11:40:54;11.40;99.90
54832;DHT22;40730;53.068;6.572;2024-02-14T11:43:23;11.60;99.90
54832;DHT22;40730;53.068;6.572;2024-02-14T11:45:49;11.50;99.90
54832;DHT22;40730;53.068;6.572;2024-02-14T11:48:16;11.50;99.90
54832;DHT22;40730;53.068;6.572;2024-02-14T11:50:44;11.50;99.90
54832;DHT22;40730;53.068;6.572;2024-02-14T11:53:14;11.60;99.90
54832;DHT22;40730;53.068;6.572;2024-02-14T11:55:42;11.60;99.90
54832;DHT22;40730;53.068;6.572;2024-02-14T11:58:11;11.60;99.90
54832;DHT22;40730;53.068;6.572;2024-02-14T12:00:42;11.60;99.90
54832;DHT22;40730;53.068;6.572;2024-02-14T12:03:23;11.60;99.90
54832;DHT22;40730;53.068;6.572;2024-02-14T12:05:51;11.60;99.90
54832;DHT22;40730;53.068;6.572;2024-02-14T12:08:17;11.60;99.90
54832;DHT22;40730;53.068;6.572;2024-02-14T12:10:43;11.60;99.90
54832;DHT22;40730;53.068;6.572;2024-02-14T12:13:14;11.70;99.90
54832;DHT22;40730;53.068;6.572;2024-02-14T12:15:49;11.70;99.90
54832;DHT22;40730;53.068;6.572;2024-02-14T12:18:20;11.70;99.90
54832;DHT22;40730;53.068;6.572;2024-02-14T12:20:45;11.70;99.90
54832;DHT22;40730;53.068;6.572;2024-02-14T12:23:16;11.70;99.90
54832;DHT22;40730;53.068;6.572;2024-02-14T12:25:43;11.60;99.90
54832;DHT22;40730;53.068;6.572;2024-02-14T12:28:08;11.70;99.90
54832;DHT22;40730;53.068;6.572;2024-02-14T12:33:14;11.60;99.90
54832;DHT22;40730;53.068;6.572;2024-02-14T12:35:42;11.60;99.90
54832;DHT22;40730;53.068;6.572;2024-02-14T12:38:09;11.60;99.90
54832;DHT22;40730;53.068;6.572;2024-02-14T12:40:35;11.60;99.90
54832;DHT22;40730;53.068;6.572;2024-02-14T12:43:01;11.70;99.90
54832;DHT22;40730;53.068;6.572;2024-02-14T12:45:27;11.70;99.90
54832;DHT22;40730;53.068;6.572;2024-02-14T12:47:52;11.70;99.90
54832;DHT22;40730;53.068;6.572;2024-02-14T12:50:18;11.60;99.90
54832;DHT22;40730;53.068;6.572;2024-02-14T12:52:46;11.60;99.90
54832;DHT22;40730;53.068;6.572;2024-02-14T12:55:12;11.60;99.90
54832;DHT22;40730;53.068;6.572;2024-02-14T12:57:38;11.60;99.90
54832;DHT22;40730;53.068;6.572;2024-02-14T13:00:05;11.70;99.90
54832;DHT22;40730;53.068;6.572;2024-02-14T13:02:34;11.70;99.90
54832;DHT22;40730;53.068;6.572;2024-02-14T13:05:00;11.60;99.90
54832;DHT22;40730;53.068;6.572;2024-02-14T13:07:27;11.70;99.90
54832;DHT22;40730;53.068;6.572;2024-02-14T13:09:53;11.60;99.90
54832;DHT22;40730;53.068;6.572;2024-02-14T13:12:20;11.60;99.90
54832;DHT22;40730;53.068;6.572;2024-02-14T13:14:46;11.70;99.90
54832;DHT22;40730;53.068;6.572;2024-02-14T13:17:12;11.60;99.90
54832;DHT22;40730;53.068;6.572;2024-02-14T13:19:39;11.70;99.90
54832;DHT22;40730;53.068;6.572;2024-02-14T13:22:05;11.70;99.90
54832;DHT22;40730;53.068;6.572;2024-02-14T13:24:31;11.70;99.90
54832;DHT22;40730;53.068;6.572;2024-02-14T13:26:57;11.70;99.90
54832;DHT22;40730;53.068;6.572;2024-02-14T13:29:25;11.60;99.90
54832;DHT22;40730;53.068;6.572;2024-02-14T13:31:51;11.70;99.90
54832;DHT22;40730;53.068;6.572;2024-02-14T13:34:17;11.70;99.90
54832;DHT22;40730;53.068;6.572;2024-02-14T13:36:45;11.60;99.90
54832;DHT22;40730;53.068;6.572;2024-02-14T13:39:11;11.60;99.90
54832;DHT22;40730;53.068;6.572;2024-02-14T13:41:43;11.60;99.90
54832;DHT22;40730;53.068;6.572;2024-02-14T13:44:10;11.60;99.90
54832;DHT22;40730;53.068;6.572;2024-02-14T13:46:36;11.60;99.90
54832;DHT22;40730;53.068;6.572;2024-02-14T13:49:02;11.60;99.90
54832;DHT22;40730;53.068;6.572;2024-02-14T13:51:28;11.60;99.90
54832;DHT22;40730;53.068;6.572;2024-02-14T13:53:54;11.60;99.90
54832;DHT22;40730;53.068;6.572;2024-02-14T13:56:21;11.60;99.90
54832;DHT22;40730;53.068;6.572;2024-02-14T13:58:48;11.50;99.90
54832;DHT22;40730;53.068;6.572;2024-02-14T14:01:16;11.50;99.90
54832;DHT22;40730;53.068;6.572;2024-02-14T14:03:43;11.60;99.90
54832;DHT22;40730;53.068;6.572;2024-02-14T14:06:08;11.60;99.90
54832;DHT22;40730;53.068;6.572;2024-02-14T14:08:35;11.60;99.90
54832;DHT22;40730;53.068;6.572;2024-02-14T14:11:02;11.60;99.90
54832;DHT22;40730;53.068;6.572;2024-02-14T14:13:29;11.60;99.90
54832;DHT22;40730;53.068;6.572;2024-02-14T14:15:57;11.50;99.90
54832;DHT22;40730;53.068;6.572;2024-02-14T14:18:23;11.60;99.90
54832;DHT22;40730;53.068;6.572;2024-02-14T14:20:49;11.60;99.90
54832;DHT22;40730;53.068;6.572;2024-02-14T14:23:14;11.50;99.90
54832;DHT22;40730;53.068;6.572;2024-02-14T14:25:41;11.50;99.90
54832;DHT22;40730;53.068;6.572;2024-02-14T14:28:07;11.60;99.90
54832;DHT22;40730;53.068;6.572;2024-02-14T14:30:35;11.50;99.90
54832;DHT22;40730;53.068;6.572;2024-02-14T14:33:00;11.50;99.90
54832;DHT22;40730;53.068;6.572;2024-02-14T14:35:26;11.50;99.90
54832;DHT22;40730;53.068;6.572;2024-02-14T14:37:52;11.50;99.90
54832;DHT22;40730;53.068;6.572;2024-02-14T14:40:17;11.50;99.90
54832;DHT22;40730;53.068;6.572;2024-02-14T14:42:43;11.50;99.90
54832;DHT22;40730;53.068;6.572;2024-02-14T14:45:08;11.50;99.90
54832;DHT22;40730;53.068;6.572;2024-02-14T14:47:34;11.40;99.90
54832;DHT22;40730;53.068;6.572;2024-02-14T14:50:01;11.50;99.90
54832;DHT22;40730;53.068;6.572;2024-02-14T14:52:26;11.50;99.90
54832;DHT22;40730;53.068;6.572;2024-02-14T14:54:52;11.50;99.90
54832;DHT22;40730;53.068;6.572;2024-02-14T14:57:17;11.50;99.90
54832;DHT22;40730;53.068;6.572;2024-02-14T14:59:43;11.50;99.90
54832;DHT22;40730;53.068;6.572;2024-02-14T15:02:09;11.60;99.90
54832;DHT22;40730;53.068;6.572;2024-02-14T15:04:34;11.50;99.90
54832;DHT22;40730;53.068;6.572;2024-02-14T15:07:02;11.50;99.90
54832;DHT22;40730;53.068;6.572;2024-02-14T15:09:27;11.50;99.90
54832;DHT22;40730;53.068;6.572;2024-02-14T15:11:53;11.70;99.90
54832;DHT22;40730;53.068;6.572;2024-02-14T15:14:19;11.60;99.90
54832;DHT22;40730;53.068;6.572;2024-02-14T15:16:45;11.50;99.90
54832;DHT22;40730;53.068;6.572;2024-02-14T15:19:10;11.50;99.90
54832;DHT22;40730;53.068;6.572;2024-02-14T15:21:36;11.60;99.90
54832;DHT22;40730;53.068;6.572;2024-02-14T15:24:02;11.50;99.90
54832;DHT22;40730;53.068;6.572;2024-02-14T15:26:29;11.50;99.90
54832;DHT22;40730;53.068;6.572;2024-02-14T15:28:55;11.60;99.90
54832;DHT22;40730;53.068;6.572;2024-02-14T15:31:43;11.60;99.90
54832;DHT22;40730;53.068;6.572;2024-02-14T15:34:28;11.50;99.90
54832;DHT22;40730;53.068;6.572;2024-02-14T15:36:54;11.60;99.90